Time;durP1;ratioP1;P1;durP2;ratioP2;P2;SDS_P1;SDS_P2;PMS_P1;PMS_P2;Temp;Humidity;BMP_temperature;BMP_pressure;BME280_temperature;BME280_humidity;BME280_pressure;Samples;Min_cycle;Max_cycle;Signal;HPM_P1;HPM_P2
2022/11/06 00:00:19;;;;;;;;;;;;;;;2.11;100.00;99479.84;5113707;28;20393;-77
2022/11/06 00:02:46;;;;;;;;;;;;;;;2.13;100.00;99465.31;5113732;28;20014;-77
2022/11/06 00:07:58;;;;;;;;;;;;;;;2.06;100.00;99474.84;5113981;28;20037;-77
2022/11/06 00:10:24;;;;;;;;;;;;;;;2.10;100.00;99468.22;5113787;28;20030;-77
2022/11/06 00:12:51;;;;;;;;;;;;;;;2.08;100.00;99467.50;5107234;28;20065;-77
2022/11/06 00:15:17;;;;;;;;;;;;;;;1.97;100.00;99470.19;5106232;28;20255;-77
2022/11/06 00:17:43;;;;;;;;;;;;;;;1.90;100.00;99467.16;5113762;28;19967;-77
2022/11/06 00:20:10;;;;;;;;;;;;;;;2.04;100.00;99459.84;5114030;28;19919;-77
2022/11/06 00:22:38;;;;;;;;;;;;;;;1.95;100.00;99462.28;5113294;28;19920;-77
2022/11/06 00:25:05;;;;;;;;;;;;;;;2.00;100.00;99461.06;5113759;28;20274;-77
2022/11/06 00:27:35;;;;;;;;;;;;;;;2.00;100.00;99463.75;5108167;28;19927;-77
2022/11/06 00:30:01;;;;;;;;;;;;;;;1.98;100.00;99463.03;5093259;28;20355;-77
2022/11/06 00:32:27;;;;;;;;;;;;;;;1.87;100.00;99472.78;5093151;28;20030;-77
2022/11/06 00:34:54;;;;;;;;;;;;;;;1.96;100.00;99471.19;5092134;28;19949;-77
2022/11/06 00:37:20;;;;;;;;;;;;;;;1.82;100.00;99477.63;5093099;28;19920;-77
2022/11/06 00:39:48;;;;;;;;;;;;;;;1.94;100.00;99489.19;5092902;28;20396;-77
2022/11/06 00:42:14;;;;;;;;;;;;;;;2.00;100.00;99491.41;5097274;28;19926;-77
2022/11/06 00:44:40;;;;;;;;;;;;;;;1.92;100.00;99481.28;5113156;28;19919;-77
2022/11/06 00:47:07;;;;;;;;;;;;;;;1.77;100.00;99478.00;5113425;28;19926;-77
2022/11/06 00:49:33;;;;;;;;;;;;;;;1.75;100.00;99477.25;5113260;28;19919;-77
2022/11/06 00:52:00;;;;;;;;;;;;;;;1.72;100.00;99473.97;5113303;28;19926;-77
2022/11/06 00:54:26;;;;;;;;;;;;;;;1.73;100.00;99483.72;5112983;28;19930;-77
2022/11/06 00:56:54;;;;;;;;;;;;;;;1.69;100.00;99477.75;5109035;28;20014;-77
2022/11/06 00:59:20;;;;;;;;;;;;;;;1.72;100.00;99484.72;5092932;28;19920;-77
2022/11/06 01:01:47;;;;;;;;;;;;;;;1.72;100.00;99482.88;5092508;28;19920;-77
2022/11/06 01:04:14;;;;;;;;;;;;;;;1.80;100.00;99489.47;5092650;28;19920;-77
2022/11/06 01:06:41;;;;;;;;;;;;;;;1.74;100.00;99488.13;5092524;28;20014;-77
2022/11/06 01:09:08;;;;;;;;;;;;;;;1.69;100.00;99483.13;5092833;28;19920;-77
2022/11/06 01:11:36;;;;;;;;;;;;;;;1.79;100.00;99488.59;5101896;28;20290;-77
2022/11/06 01:14:04;;;;;;;;;;;;;;;1.83;100.00;99479.34;5112667;28;19926;-77
2022/11/06 01:16:31;;;;;;;;;;;;;;;1.75;100.00;99477.25;5112877;28;19919;-77
2022/11/06 01:18:58;;;;;;;;;;;;;;;1.68;100.00;99480.56;5112990;28;19924;-77
2022/11/06 01:21:26;;;;;;;;;;;;;;;1.61;100.00;99476.63;5112934;28;19962;-77
2022/11/06 01:23:53;;;;;;;;;;;;;;;1.58;100.00;99475.91;5112454;28;19920;-77
2022/11/06 01:26:19;;;;;;;;;;;;;;;1.55;100.00;99480.66;5099260;28;20287;-77
2022/11/06 01:28:46;;;;;;;;;;;;;;;1.51;100.00;99468.47;5092657;28;19924;-77
2022/11/06 01:31:14;;;;;;;;;;;;;;;1.57;100.00;99470.69;5092466;28;19919;-77
2022/11/06 01:33:41;;;;;;;;;;;;;;;1.47;100.00;99472.38;5091969;28;19920;-77
2022/11/06 01:36:08;;;;;;;;;;;;;;;1.45;100.00;99474.31;5093958;28;20291;-77
2022/11/06 01:38:35;;;;;;;;;;;;;;;1.49;100.00;99482.00;5092456;28;19942;-77
2022/11/06 01:41:01;;;;;;;;;;;;;;;1.53;100.00;99482.59;5092646;28;19920;-77
2022/11/06 01:43:42;;;;;;;;;;;;;;;1.56;100.00;99477.00;5092109;28;19927;-77
2022/11/06 01:46:09;;;;;;;;;;;;;;;1.52;100.00;99467.50;5094993;28;19936;-77
2022/11/06 01:48:38;;;;;;;;;;;;;;;1.40;100.00;99462.13;5096167;28;19920;-77
2022/11/06 01:51:05;;;;;;;;;;;;;;;1.21;100.00;99464.53;5096539;28;19957;-77
2022/11/06 01:53:32;;;;;;;;;;;;;;;1.21;100.00;99453.81;5104379;28;19923;-77
2022/11/06 01:56:01;;;;;;;;;;;;;;;1.26;100.00;99466.84;5116486;28;19928;-77
2022/11/06 01:58:29;;;;;;;;;;;;;;;1.21;100.00;99470.72;5116542;27;20018;-77
2022/11/06 02:00:56;;;;;;;;;;;;;;;1.26;100.00;99467.69;5116320;28;19929;-78
2022/11/06 02:03:22;;;;;;;;;;;;;;;1.22;100.00;99463.56;5116235;28;19919;-77
2022/11/06 02:05:50;;;;;;;;;;;;;;;1.12;100.00;99463.41;5115445;28;20375;-77
2022/11/06 02:08:17;;;;;;;;;;;;;;;1.14;100.00;99461.44;5116337;28;20434;-77
2022/11/06 02:10:44;;;;;;;;;;;;;;;1.16;100.00;99459.53;5116048;28;19972;-77
2022/11/06 02:13:15;;;;;;;;;;;;;;;1.09;100.00;99458.28;5116130;28;19919;-78
2022/11/06 02:15:45;;;;;;;;;;;;;;;1.14;100.00;99453.41;5116017;28;19919;-77
2022/11/06 02:18:22;;;;;;;;;;;;;;;1.12;100.00;99455.34;5116311;28;19920;-77
2022/11/06 02:20:59;;;;;;;;;;;;;;;1.06;100.00;99451.31;5100602;28;19958;-77
2022/11/06 02:23:36;;;;;;;;;;;;;;;1.02;100.00;99449.88;5107400;28;19919;-77
2022/11/06 02:26:10;;;;;;;;;;;;;;;0.93;100.00;99447.88;5116111;28;19951;-77
2022/11/06 02:28:41;;;;;;;;;;;;;;;0.96;100.00;99442.28;5115905;28;19971;-77
2022/11/06 02:31:10;;;;;;;;;;;;;;;1.00;100.00;99430.38;5115852;28;20284;-77
2022/11/06 02:33:38;;;;;;;;;;;;;;;1.01;100.00;99421.38;5115290;28;19919;-77
2022/11/06 02:36:07;;;;;;;;;;;;;;;0.96;100.00;99415.50;5115140;28;20359;-77
2022/11/06 02:38:37;;;;;;;;;;;;;;;0.91;100.00;99411.50;5095582;28;20010;-77
2022/11/06 02:41:06;;;;;;;;;;;;;;;0.87;100.00;99405.50;5095027;28;19946;-77
2022/11/06 02:43:36;;;;;;;;;;;;;;;0.91;100.00;99398.97;5094933;28;20276;-77
2022/11/06 02:46:06;;;;;;;;;;;;;;;1.00;100.00;99408.13;5095340;28;19942;-77
2022/11/06 02:48:36;;;;;;;;;;;;;;;1.06;100.00;99400.44;5095247;28;19924;-77
2022/11/06 02:51:04;;;;;;;;;;;;;;;1.15;100.00;99390.84;5095070;28;19924;-77
2022/11/06 02:53:32;;;;;;;;;;;;;;;1.17;100.00;99391.56;5094716;28;20169;-77
2022/11/06 02:56:02;;;;;;;;;;;;;;;1.26;100.00;99400.72;5110851;28;19930;-77
2022/11/06 02:58:33;;;;;;;;;;;;;;;1.32;100.00;99396.72;5114607;28;19967;-77
2022/11/06 03:01:02;;;;;;;;;;;;;;;1.37;100.00;99383.81;5115039;28;19923;-77
2022/11/06 03:03:32;;;;;;;;;;;;;;;1.42;100.00;99379.78;5103770;28;19920;-77
2022/11/06 03:06:01;;;;;;;;;;;;;;;1.50;100.00;99368.47;5094960;28;20350;-77
2022/11/06 03:08:30;;;;;;;;;;;;;;;1.61;100.00;99370.28;5094796;28;20505;-77
2022/11/06 03:11:01;;;;;;;;;;;;;;;1.64;100.00;99367.38;5094691;28;19920;-77
2022/11/06 03:13:29;;;;;;;;;;;;;;;1.69;100.00;99367.03;5094556;28;19920;-77
2022/11/06 03:16:04;;;;;;;;;;;;;;;1.70;100.00;99366.91;5094580;28;19936;-77
2022/11/06 03:18:34;;;;;;;;;;;;;;;1.67;100.00;99352.88;5106714;28;20370;-77
2022/11/06 03:21:03;;;;;;;;;;;;;;;1.69;100.00;99358.97;5114918;28;19920;-77
2022/11/06 03:23:33;;;;;;;;;;;;;;;1.65;100.00;99355.66;5114456;27;19919;-77
2022/11/06 03:26:03;;;;;;;;;;;;;;;1.61;100.00;99356.88;5097309;28;19920;-77
2022/11/06 03:28:31;;;;;;;;;;;;;;;1.55;100.00;99357.38;5094234;28;20385;-77
2022/11/06 03:30:59;;;;;;;;;;;;;;;1.47;100.00;99354.47;5094716;28;19920;-77
2022/11/06 03:33:30;;;;;;;;;;;;;;;1.45;100.00;99359.97;5094103;28;19927;-77
2022/11/06 03:36:01;;;;;;;;;;;;;;;1.37;100.00;99357.00;5094190;28;19924;-77
2022/11/06 03:38:30;;;;;;;;;;;;;;;1.35;100.00;99349.09;5093966;28;20175;-78
2022/11/06 03:40:59;;;;;;;;;;;;;;;1.37;100.00;99344.50;5094038;28;20019;-77
2022/11/06 03:43:28;;;;;;;;;;;;;;;1.27;100.00;99354.22;5093677;28;20002;-78
2022/11/06 03:45:56;;;;;;;;;;;;;;;1.28;100.00;99342.53;5094051;28;19920;-78
2022/11/06 03:48:26;;;;;;;;;;;;;;;1.30;100.00;99353.16;5109979;28;19928;-77
2022/11/06 03:50:56;;;;;;;;;;;;;;;1.31;100.00;99344.09;5114151;28;19923;-78
2022/11/06 03:53:27;;;;;;;;;;;;;;;1.27;100.00;99351.53;5114075;28;19919;-78
2022/11/06 03:55:55;;;;;;;;;;;;;;;1.27;100.00;99335.47;5113973;28;20385;-77
2022/11/06 03:58:23;;;;;;;;;;;;;;;1.22;100.00;99341.19;5114163;28;20053;-77
2022/11/06 04:00:50;;;;;;;;;;;;;;;1.19;100.00;99340.56;5113991;28;19926;-78
2022/11/06 04:03:20;;;;;;;;;;;;;;;1.19;100.00;99338.75;5096413;28;19976;-77
2022/11/06 04:05:49;;;;;;;;;;;;;;;1.17;100.00;99339.84;5093604;28;19920;-77
2022/11/06 04:13:57;;;;;;;;;;;;;;;1.15;100.00;99337.28;5093093;28;20049;-77
2022/11/06 04:16:25;;;;;;;;;;;;;;;1.24;100.00;99333.03;5093609;28;20394;-77
2022/11/06 04:18:51;;;;;;;;;;;;;;;1.29;100.00;99333.50;5111061;28;19920;-78
2022/11/06 04:21:24;;;;;;;;;;;;;;;1.24;100.00;99325.84;5113946;28;20040;-78
2022/11/06 04:26:58;;;;;;;;;;;;;;;1.08;100.00;99328.03;5113613;28;19969;-77
2022/11/06 04:29:31;;;;;;;;;;;;;;;1.02;100.00;99329.38;5113880;28;19927;-77
2022/11/06 04:32:03;;;;;;;;;;;;;;;0.99;100.00;99315.38;5109175;28;20282;-77
2022/11/06 04:34:33;;;;;;;;;;;;;;;1.02;100.00;99318.69;5093091;28;20006;-77
2022/11/06 04:37:06;;;;;;;;;;;;;;;0.98;100.00;99317.22;5093303;28;19959;-77
2022/11/06 04:39:36;;;;;;;;;;;;;;;0.97;100.00;99311.97;5093077;28;20367;-77
2022/11/06 04:42:08;;;;;;;;;;;;;;;0.94;100.00;99305.03;5092738;28;19920;-78
2022/11/06 04:44:37;;;;;;;;;;;;;;;0.92;100.00;99301.63;5093378;28;19920;-78
2022/11/06 04:47:07;;;;;;;;;;;;;;;0.84;100.00;99296.88;5093031;28;20029;-78
2022/11/06 04:49:35;;;;;;;;;;;;;;;0.87;100.00;99293.09;5098659;28;19920;-78
2022/11/06 04:52:02;;;;;;;;;;;;;;;0.81;100.00;99291.75;5112740;28;19930;-78
2022/11/06 04:54:29;;;;;;;;;;;;;;;0.81;100.00;99282.84;5113090;28;19923;-78
2022/11/06 04:56:58;;;;;;;;;;;;;;;0.84;100.00;99269.22;5113197;28;19926;-78
2022/11/06 04:59:26;;;;;;;;;;;;;;;0.87;100.00;99271.66;5113163;28;20027;-78
2022/11/06 05:01:52;;;;;;;;;;;;;;;0.94;100.00;99267.53;5113079;28;19920;-78
2022/11/06 05:04:19;;;;;;;;;;;;;;;0.86;100.00;99264.63;5112941;28;20045;-78
2022/11/06 05:06:46;;;;;;;;;;;;;;;0.85;100.00;99261.09;5110948;28;20002;-78
2022/11/06 05:09:12;;;;;;;;;;;;;;;0.77;100.00;99263.53;5092547;28;19949;-78
2022/11/06 05:11:39;;;;;;;;;;;;;;;0.73;100.00;99283.47;5092611;28;20268;-78
2022/11/06 05:14:05;;;;;;;;;;;;;;;0.75;100.00;99289.53;5092396;28;20006;-78
2022/11/06 05:16:33;;;;;;;;;;;;;;;0.75;100.00;99288.69;5092763;28;20298;-78
2022/11/06 05:18:59;;;;;;;;;;;;;;;0.80;100.00;99298.06;5092420;28;19920;-78
2022/11/06 05:24:09;;;;;;;;;;;;;;;0.81;100.00;99312.31;5101373;28;19931;-78
2022/11/06 05:26:36;;;;;;;;;;;;;;;0.79;100.00;99316.94;5117142;28;19919;-78
2022/11/06 05:29:02;;;;;;;;;;;;;;;0.67;100.00;99316.88;5116989;27;19919;-78
2022/11/06 05:31:28;;;;;;;;;;;;;;;0.63;100.00;99311.91;5117123;28;19920;-78
2022/11/06 05:33:56;;;;;;;;;;;;;;;0.67;100.00;99314.22;5116225;28;20359;-78
2022/11/06 05:36:23;;;;;;;;;;;;;;;0.64;100.00;99309.09;5116964;27;19926;-78
2022/11/06 05:38:49;;;;;;;;;;;;;;;0.61;100.00;99322.72;5116561;28;19924;-78
2022/11/06 05:41:15;;;;;;;;;;;;;;;0.49;100.00;99315.63;5115222;28;20002;-78
2022/11/06 05:43:42;;;;;;;;;;;;;;;0.42;100.00;99317.94;5116253;28;20026;-78
2022/11/06 05:46:08;;;;;;;;;;;;;;;0.46;100.00;99318.53;5117945;28;19967;-78
2022/11/06 05:48:34;;;;;;;;;;;;;;;0.47;100.00;99314.91;5117767;28;19926;-78
2022/11/06 05:51:03;;;;;;;;;;;;;;;0.40;100.00;99325.22;5116286;28;20328;-78
2022/11/06 05:53:29;;;;;;;;;;;;;;;0.37;100.00;99320.09;5116384;27;19926;-78
2022/11/06 05:55:56;;;;;;;;;;;;;;;0.35;100.00;99324.72;5116572;28;20491;-78
2022/11/06 05:58:22;;;;;;;;;;;;;;;0.19;100.00;99316.13;5116644;28;19926;-78
2022/11/06 06:00:49;;;;;;;;;;;;;;;0.13;100.00;99310.25;5116637;28;19920;-78
2022/11/06 06:03:15;;;;;;;;;;;;;;;0.14;100.00;99303.13;5116238;28;19920;-78
2022/11/06 06:05:41;;;;;;;;;;;;;;;0.14;100.00;99309.31;5116048;28;19919;-78
2022/11/06 06:08:09;;;;;;;;;;;;;;;0.01;100.00;99305.00;5116371;28;19926;-78
2022/11/06 06:10:35;;;;;;;;;;;;;;;-0.03;100.00;99315.03;5116371;28;19972;-78
2022/11/06 06:13:02;;;;;;;;;;;;;;;0.04;100.00;99318.97;5116322;28;19920;-78
2022/11/06 06:15:28;;;;;;;;;;;;;;;0.07;100.00;99309.88;5115983;28;19919;-78
2022/11/06 06:17:54;;;;;;;;;;;;;;;-0.04;100.00;99314.19;5116324;27;20301;-78
2022/11/06 06:20:21;;;;;;;;;;;;;;;-0.07;100.00;99325.13;5116106;27;20301;-78
2022/11/06 06:22:52;;;;;;;;;;;;;;;0.03;100.00;99327.09;5114387;28;20282;-78
2022/11/06 06:25:20;;;;;;;;;;;;;;;0.01;100.00;99321.03;5116123;28;19919;-78
2022/11/06 06:27:46;;;;;;;;;;;;;;;-0.01;100.00;99326.50;5116235;28;19920;-78
2022/11/06 06:30:13;;;;;;;;;;;;;;;-0.05;100.00;99319.66;5116138;28;19920;-79
2022/11/06 06:32:39;;;;;;;;;;;;;;;0.01;100.00;99321.88;5114417;28;20408;-79
2022/11/06 06:35:06;;;;;;;;;;;;;;;-0.06;100.00;99318.81;5115089;28;19923;-78
2022/11/06 06:37:32;;;;;;;;;;;;;;;-0.14;100.00;99320.34;5104256;28;19920;-79
2022/11/06 06:39:59;;;;;;;;;;;;;;;-0.15;100.00;99314.16;5095612;28;20003;-79
2022/11/06 06:42:27;;;;;;;;;;;;;;;-0.13;100.00;99304.19;5094946;28;19927;-78
2022/11/06 06:44:53;;;;;;;;;;;;;;;-0.09;100.00;99297.66;5095287;28;19993;-78
2022/11/06 06:47:20;;;;;;;;;;;;;;;0.03;100.00;99297.72;5095195;28;20007;-78
2022/11/06 06:49:46;;;;;;;;;;;;;;;0.12;100.00;99305.91;5095110;28;19926;-78
2022/11/06 06:52:13;;;;;;;;;;;;;;;0.17;100.00;99294.88;5094899;28;19920;-78
2022/11/06 06:54:39;;;;;;;;;;;;;;;0.21;100.00;99300.81;5094785;28;20218;-78
2022/11/06 06:57:07;;;;;;;;;;;;;;;0.30;100.00;99297.44;5098767;28;19973;-78
2022/11/06 06:59:35;;;;;;;;;;;;;;;0.31;100.00;99291.13;5095042;28;20014;-78
2022/11/06 07:02:02;;;;;;;;;;;;;;;0.34;100.00;99288.22;5095122;28;19959;-78
2022/11/06 07:04:28;;;;;;;;;;;;;;;0.38;100.00;99281.69;5094678;28;20019;-78
2022/11/06 07:06:54;;;;;;;;;;;;;;;0.30;100.00;99273.38;5094924;28;20291;-79
2022/11/06 07:09:22;;;;;;;;;;;;;;;0.37;100.00;99258.56;5094533;28;19963;-78
2022/11/06 07:11:49;;;;;;;;;;;;;;;0.47;100.00;99251.56;5094816;28;19920;-78
2022/11/06 07:14:15;;;;;;;;;;;;;;;0.54;100.00;99246.56;5094740;28;19963;-78
2022/11/06 07:16:43;;;;;;;;;;;;;;;0.60;100.00;99247.91;5094573;28;20074;-79
2022/11/06 07:19:09;;;;;;;;;;;;;;;0.68;100.00;99238.34;5094728;28;19942;-78
2022/11/06 07:21:35;;;;;;;;;;;;;;;0.79;100.00;99229.44;5094346;28;20374;-78
2022/11/06 07:24:02;;;;;;;;;;;;;;;0.88;100.00;99222.53;5094524;28;19920;-78
2022/11/06 07:26:28;;;;;;;;;;;;;;;0.93;100.00;99222.16;5094374;28;19927;-79
2022/11/06 07:28:54;;;;;;;;;;;;;;;0.98;100.00;99218.16;5094362;28;20010;-78
2022/11/06 07:31:21;;;;;;;;;;;;;;;0.99;100.00;99219.00;5104290;28;19924;-78
2022/11/06 07:33:49;;;;;;;;;;;;;;;1.09;100.00;99208.41;5114195;28;20014;-78
2022/11/06 07:36:15;;;;;;;;;;;;;;;1.16;100.00;99205.13;5114507;28;19926;-78
2022/11/06 07:38:43;;;;;;;;;;;;;;;1.26;100.00;99205.19;5114503;28;19930;-78
2022/11/06 07:41:10;;;;;;;;;;;;;;;1.38;100.00;99184.59;5114467;28;19919;-78
2022/11/06 07:43:36;;;;;;;;;;;;;;;1.56;100.00;99190.28;5113780;28;20363;-78
2022/11/06 07:46:04;;;;;;;;;;;;;;;1.66;100.00;99188.53;5114462;28;19926;-78
2022/11/06 07:48:31;;;;;;;;;;;;;;;1.77;100.00;99179.59;5112203;28;20020;-78
2022/11/06 07:51:01;;;;;;;;;;;;;;;1.84;100.00;99167.38;5113981;28;20291;-78
2022/11/06 07:53:27;;;;;;;;;;;;;;;1.92;100.00;99161.38;5113960;28;19920;-78
2022/11/06 07:55:55;;;;;;;;;;;;;;;1.94;100.00;99151.38;5114250;28;19920;-78
2022/11/06 07:58:21;;;;;;;;;;;;;;;1.89;100.00;99126.78;5114152;28;19923;-78
2022/11/06 08:00:48;;;;;;;;;;;;;;;2.05;100.00;99139.75;5112159;28;20359;-78
2022/11/06 08:03:15;;;;;;;;;;;;;;;2.09;100.00;99149.22;5113907;28;19919;-78
2022/11/06 08:05:41;;;;;;;;;;;;;;;2.21;100.00;99139.25;5113812;27;19928;-78
2022/11/06 08:08:09;;;;;;;;;;;;;;;2.34;100.00;99133.69;5114145;28;19920;-78
2022/11/06 08:10:39;;;;;;;;;;;;;;;2.46;100.00;99121.91;5113764;28;20374;-78
2022/11/06 08:13:05;;;;;;;;;;;;;;;2.56;100.00;99114.75;5108589;28;19927;-78
2022/11/06 08:15:32;;;;;;;;;;;;;;;2.82;100.00;99114.25;5099739;28;19924;-79
2022/11/06 08:17:58;;;;;;;;;;;;;;;3.01;100.00;99118.81;5113957;28;19923;-79
2022/11/06 08:20:25;;;;;;;;;;;;;;;3.12;100.00;99116.03;5113771;28;19920;-79
2022/11/06 08:22:51;;;;;;;;;;;;;;;3.21;100.00;99108.13;5113674;28;20055;-78
2022/11/06 08:25:19;;;;;;;;;;;;;;;3.19;100.00;99109.13;5113669;28;19927;-79
2022/11/06 08:27:45;;;;;;;;;;;;;;;3.25;100.00;99120.28;5111604;28;20369;-79
2022/11/06 08:30:12;;;;;;;;;;;;;;;3.45;100.00;99113.13;5113583;28;19930;-78
2022/11/06 08:32:38;;;;;;;;;;;;;;;3.52;100.00;99100.78;5113152;28;20010;-78
2022/11/06 08:35:05;;;;;;;;;;;;;;;3.58;100.00;99102.06;5113299;28;19930;-78
2022/11/06 08:37:32;;;;;;;;;;;;;;;3.68;100.00;99105.59;5113467;28;19930;-79
2022/11/06 08:39:58;;;;;;;;;;;;;;;3.79;100.00;99115.34;5113442;28;19930;-78
2022/11/06 08:42:26;;;;;;;;;;;;;;;3.85;100.00;99118.34;5111066;28;19970;-78
2022/11/06 08:44:52;;;;;;;;;;;;;;;3.90;100.00;99129.50;5093009;28;20015;-78
2022/11/06 08:47:18;;;;;;;;;;;;;;;3.58;100.00;99127.09;5092774;28;20395;-78
2022/11/06 08:49:45;;;;;;;;;;;;;;;3.45;100.00;99132.78;5093117;28;19920;-78
2022/11/06 08:52:11;;;;;;;;;;;;;;;3.38;100.00;99128.94;5092401;28;20324;-78
2022/11/06 08:54:38;;;;;;;;;;;;;;;3.39;100.00;99124.41;5092078;28;20460;-78
2022/11/06 08:57:04;;;;;;;;;;;;;;;3.43;100.00;99118.59;5106175;28;19919;-78
2022/11/06 08:59:32;;;;;;;;;;;;;;;3.51;100.00;99116.06;5112766;28;19920;-78
2022/11/06 09:01:59;;;;;;;;;;;;;;;3.62;100.00;99108.88;5113067;28;19923;-79
2022/11/06 09:04:26;;;;;;;;;;;;;;;3.75;100.00;99108.56;5112888;28;19932;-79
2022/11/06 09:06:52;;;;;;;;;;;;;;;3.87;100.00;99107.44;5113080;28;19924;-78
2022/11/06 09:09:18;;;;;;;;;;;;;;;3.95;100.00;99109.41;5113259;28;20036;-79
2022/11/06 09:11:45;;;;;;;;;;;;;;;4.06;100.00;99104.72;5113003;28;20014;-79
2022/11/06 09:14:11;;;;;;;;;;;;;;;4.23;100.00;99086.97;5112303;28;20007;-79
2022/11/06 09:16:39;;;;;;;;;;;;;;;4.45;100.00;99090.28;5092241;28;19924;-78
2022/11/06 09:19:05;;;;;;;;;;;;;;;4.58;100.00;99095.34;5092687;28;20375;-79
2022/11/06 09:21:32;;;;;;;;;;;;;;;4.66;100.00;99098.13;5092106;28;19924;-79
2022/11/06 09:23:58;;;;;;;;;;;;;;;4.77;100.00;99110.56;5092516;28;19930;-79
2022/11/06 09:26:24;;;;;;;;;;;;;;;4.81;100.00;99121.91;5092404;28;20450;-79
2022/11/06 09:28:51;;;;;;;;;;;;;;;4.78;100.00;99141.88;5092543;28;19931;-79
2022/11/06 09:31:17;;;;;;;;;;;;;;;4.80;100.00;99150.66;5091985;28;19920;-79
2022/11/06 09:33:45;;;;;;;;;;;;;;;4.75;100.00;99142.19;5112380;28;20208;-79
2022/11/06 09:36:11;;;;;;;;;;;;;;;4.73;100.00;99145.03;5112790;28;20286;-79
2022/11/06 09:38:37;;;;;;;;;;;;;;;4.81;100.00;99130.81;5112763;28;19935;-79
2022/11/06 09:41:04;;;;;;;;;;;;;;;4.78;100.00;99123.88;5112828;28;19919;-79
2022/11/06 09:43:36;;;;;;;;;;;;;;;4.76;100.00;99120.50;5112384;28;19919;-79
2022/11/06 09:46:06;;;;;;;;;;;;;;;4.84;100.00;99114.34;5104915;28;20007;-79
2022/11/06 09:48:36;;;;;;;;;;;;;;;4.88;100.00;99112.22;5092207;28;19924;-79
2022/11/06 09:51:10;;;;;;;;;;;;;;;4.93;100.00;99112.59;5092789;28;19924;-79
2022/11/06 09:53:38;;;;;;;;;;;;;;;4.94;100.00;99100.84;5104102;28;19920;-79
2022/11/06 09:56:05;;;;;;;;;;;;;;;5.03;100.00;99089.16;5099885;28;19942;-79
2022/11/06 09:58:34;;;;;;;;;;;;;;;5.07;100.00;99085.16;5112401;28;20014;-79
2022/11/06 10:01:03;;;;;;;;;;;;;;;5.19;100.00;99077.69;5113089;28;19919;-79
2022/11/06 10:03:35;;;;;;;;;;;;;;;5.22;100.00;99077.38;5102183;28;19919;-79
2022/11/06 10:06:01;;;;;;;;;;;;;;;5.31;100.00;99084.59;5108923;28;19920;-79
2022/11/06 10:08:30;;;;;;;;;;;;;;;5.38;100.00;99083.97;5116022;27;19919;-79
2022/11/06 10:11:01;;;;;;;;;;;;;;;5.46;100.00;99081.34;5116492;27;19927;-79
2022/11/06 10:13:42;;;;;;;;;;;;;;;5.54;100.00;99077.84;5115803;28;20362;-79
2022/11/06 10:16:12;;;;;;;;;;;;;;;5.65;100.00;99069.53;5114371;28;19974;-79
2022/11/06 10:18:44;;;;;;;;;;;;;;;5.70;100.00;99064.53;5115797;28;20367;-79
2022/11/06 10:21:11;;;;;;;;;;;;;;;5.73;100.00;99057.97;5114077;28;19942;-79
2022/11/06 10:23:43;;;;;;;;;;;;;;;5.83;100.00;99050.63;5105097;28;19923;-79
2022/11/06 10:26:11;;;;;;;;;;;;;;;5.92;100.00;99046.16;5095478;28;19920;-79
2022/11/06 10:28:53;;;;;;;;;;;;;;;6.05;100.00;99038.50;5095467;28;19924;-79
2022/11/06 10:31:24;;;;;;;;;;;;;;;6.13;100.00;99037.72;5095395;28;20383;-79
2022/11/06 10:33:55;;;;;;;;;;;;;;;6.23;100.00;99024.09;5096085;28;19934;-79
2022/11/06 10:36:23;;;;;;;;;;;;;;;6.29;100.00;99008.13;5115514;28;19926;-79
2022/11/06 10:38:52;;;;;;;;;;;;;;;6.38;100.00;99000.88;5115792;28;19920;-79
2022/11/06 10:41:20;;;;;;;;;;;;;;;6.47;100.00;98997.19;5115566;28;20010;-79
2022/11/06 10:43:49;;;;;;;;;;;;;;;6.49;100.00;98997.06;5115158;28;20381;-79
2022/11/06 10:46:18;;;;;;;;;;;;;;;6.54;100.00;98987.44;5115766;28;19920;-79
2022/11/06 10:48:47;;;;;;;;;;;;;;;6.63;100.00;98982.09;5111893;28;19924;-79
2022/11/06 10:51:23;;;;;;;;;;;;;;;6.78;100.00;98979.59;5114989;28;19924;-79
2022/11/06 10:53:59;;;;;;;;;;;;;;;6.91;100.00;98980.81;5115167;28;19919;-79
2022/11/06 10:56:35;;;;;;;;;;;;;;;7.04;100.00;98969.47;5114997;28;20359;-79
2022/11/06 10:59:01;;;;;;;;;;;;;;;7.22;100.00;98968.50;5115396;28;19920;-79
2022/11/06 11:01:28;;;;;;;;;;;;;;;7.29;100.00;98950.59;5115073;28;19926;-79
2022/11/06 11:03:54;;;;;;;;;;;;;;;7.41;100.00;98946.53;5112769;28;19920;-79
2022/11/06 11:06:21;;;;;;;;;;;;;;;7.58;100.00;98935.69;5094996;28;19920;-79
2022/11/06 11:08:48;;;;;;;;;;;;;;;7.76;100.00;98927.38;5094541;28;19930;-79
2022/11/06 11:11:23;;;;;;;;;;;;;;;7.92;100.00;98908.38;5094663;28;19956;-79
2022/11/06 11:13:51;;;;;;;;;;;;;;;8.01;100.00;98901.09;5098827;28;20008;-79
2022/11/06 11:16:18;;;;;;;;;;;;;;;8.14;100.00;98892.41;5114926;28;19964;-79
2022/11/06 11:18:45;;;;;;;;;;;;;;;8.30;100.00;98891.50;5114013;28;20299;-79
2022/11/06 11:21:15;;;;;;;;;;;;;;;8.39;100.00;98885.00;5114816;28;19926;-79
2022/11/06 11:23:42;;;;;;;;;;;;;;;8.53;100.00;98874.47;5114303;28;20325;-79
2022/11/06 11:26:16;;;;;;;;;;;;;;;8.64;100.00;98855.94;5114757;28;19945;-79
2022/11/06 11:28:49;;;;;;;;;;;;;;;8.72;100.00;98855.03;5109255;28;20006;-79
2022/11/06 11:31:16;;;;;;;;;;;;;;;8.84;100.00;98841.91;5097728;28;20402;-79
2022/11/06 11:33:49;;;;;;;;;;;;;;;8.90;100.00;98843.00;5093942;28;19920;-78
2022/11/06 11:36:16;;;;;;;;;;;;;;;8.86;100.00;98846.09;5094173;28;19927;-78
2022/11/06 11:38:42;;;;;;;;;;;;;;;8.92;100.00;98849.13;5093911;28;19920;-78
2022/11/06 11:41:12;;;;;;;;;;;;;;;8.89;100.00;98844.88;5094123;28;19927;-78
2022/11/06 11:43:39;;;;;;;;;;;;;;;8.96;100.00;98832.31;5093459;28;19924;-78
2022/11/06 11:46:17;;;;;;;;;;;;;;;9.00;100.00;98832.75;5093796;28;20256;-78
2022/11/06 11:48:46;;;;;;;;;;;;;;;9.08;100.00;98826.41;5107918;28;20006;-78
2022/11/06 11:51:16;;;;;;;;;;;;;;;9.17;100.00;98828.88;5114839;28;19978;-78
2022/11/06 11:53:42;;;;;;;;;;;;;;;9.17;100.00;98830.75;5114999;28;20374;-78
2022/11/06 11:56:14;;;;;;;;;;;;;;;9.30;100.00;98819.25;5115000;28;20006;-78
2022/11/06 11:58:40;;;;;;;;;;;;;;;9.35;96.51;98814.16;5115119;28;19919;-78
2022/11/06 12:01:08;;;;;;;;;;;;;;;9.33;96.78;98797.19;5095467;28;19967;-78
2022/11/06 12:03:40;;;;;;;;;;;;;;;9.39;100.00;98801.88;5094268;28;19931;-78
2022/11/06 12:06:08;;;;;;;;;;;;;;;9.36;98.86;98792.25;5094715;28;19919;-78
2022/11/06 12:08:35;;;;;;;;;;;;;;;9.41;97.06;98791.69;5094107;28;20367;-78
2022/11/06 12:11:02;;;;;;;;;;;;;;;9.47;94.81;98788.22;5094366;28;19931;-78
2022/11/06 12:13:29;;;;;;;;;;;;;;;9.57;93.83;98785.22;5095538;28;20588;-78
2022/11/06 12:15:57;;;;;;;;;;;;;;;9.63;95.00;98778.22;5114628;28;19919;-78
2022/11/06 12:18:26;;;;;;;;;;;;;;;9.64;93.57;98779.91;5114533;28;19924;-78
2022/11/06 12:20:57;;;;;;;;;;;;;;;9.60;94.21;98773.97;5108598;28;19919;-78
2022/11/06 12:23:26;;;;;;;;;;;;;;;9.65;92.35;98768.84;5093943;28;19924;-78
2022/11/06 12:25:58;;;;;;;;;;;;;;;9.69;91.56;98770.13;5094286;28;19943;-78
2022/11/06 12:28:25;;;;;;;;;;;;;;;9.78;94.12;98773.59;5094144;28;19930;-78
2022/11/06 12:30:55;;;;;;;;;;;;;;;9.81;94.42;98773.22;5109740;28;19919;-78
2022/11/06 12:33:24;;;;;;;;;;;;;;;9.75;90.93;98765.84;5113065;28;19920;-77
2022/11/06 12:35:57;;;;;;;;;;;;;;;9.68;89.70;98760.34;5113587;28;20332;-78
2022/11/06 12:38:27;;;;;;;;;;;;;;;9.68;87.06;98754.03;5113087;28;19919;-77
2022/11/06 12:40:56;;;;;;;;;;;;;;;9.66;90.46;98753.41;5113559;28;19938;-78
2022/11/06 12:43:25;;;;;;;;;;;;;;;9.68;90.54;98751.31;5110965;28;19920;-77
2022/11/06 12:45:56;;;;;;;;;;;;;;;9.76;89.17;98747.69;5094123;28;19926;-78
2022/11/06 12:48:31;;;;;;;;;;;;;;;9.84;90.76;98737.53;5093915;28;19920;-78
2022/11/06 12:51:02;;;;;;;;;;;;;;;9.86;90.46;98731.91;5093741;28;19927;-78
2022/11/06 12:53:36;;;;;;;;;;;;;;;9.86;90.59;98735.50;5092933;28;19927;-78
2022/11/06 12:56:06;;;;;;;;;;;;;;;9.83;87.76;98726.88;5094035;28;19920;-78
2022/11/06 12:58:53;;;;;;;;;;;;;;;9.75;87.94;98722.41;5098770;28;19967;-77
2022/11/06 13:01:24;;;;;;;;;;;;;;;9.63;88.47;98721.22;5110117;28;19919;-78
2022/11/06 13:04:00;;;;;;;;;;;;;;;9.59;87.67;98725.31;5113925;28;19919;-78
2022/11/06 13:06:33;;;;;;;;;;;;;;;9.53;90.33;98714.22;5114028;28;19919;-78